Time,TemperatureF,DewpointF,PressureIn,WindDirection,WindDirectionDegrees,WindSpeedMPH,WindSpeedGustMPH,Humidity,HourlyPrecipIn,Conditions,Clouds,dailyrainin,SoftwareType,DateUTC
2013-01-22 00:06:00,19.4,16.0,29.78,SW,220,0.0,-999.0,85,-99.99,,,0.00,weatherlink.com 1.10,2013-01-22 05:06:00,
2013-01-22 00:21:00,19.5,16.0,29.78,SW,220,0.0,-999.0,85,-99.99,,,0.00,weatherlink.com 1.10,2013-01-22 05:21:00,
2013-01-22 00:36:00,19.9,16.0,29.77,SW,220,0.0,-999.0,86,-99.99,,,0.00,weatherlink.com 1.10,2013-01-22 05:36:00,
2013-01-22 00:51:00,20.2,17.0,29.76,SW,220,0.0,-999.0,86,-99.99,,,0.00,weatherlink.com 1.10,2013-01-22 05:51:00,
2013-01-22 01:06:00,20.2,17.0,29.77,SW,220,0.0,-999.0,86,-99.99,,,0.00,weatherlink.com 1.10,2013-01-22 06:06:00,
2013-01-22 01:21:00,19.7,16.0,29.75,SW,220,0.0,-999.0,86,-99.99,,,0.00,weatherlink.com 1.10,2013-01-22 06:21:00,
2013-01-22 01:36:00,19.1,16.0,29.75,SW,220,0.0,-999.0,86,-99.99,,,0.00,weatherlink.com 1.10,2013-01-22 06:36:00,
2013-01-22 01:51:00,18.1,14.0,29.77,SW,220,0.0,-999.0,85,-99.99,,,0.00,weatherlink.com 1.10,2013-01-22 06:51:00,
2013-01-22 02:06:00,17.8,14.0,29.77,SW,222,0.0,-999.0,85,-99.99,,,0.00,weatherlink.com 1.10,2013-01-22 07:06:00,
2013-01-22 02:21:00,17.2,14.0,29.76,SW,222,0.0,-999.0,85,-99.99,,,0.00,weatherlink.com 1.10,2013-01-22 07:21:00,
2013-01-22 02:36:00,16.7,13.0,29.76,SW,220,0.0,-999.0,85,-99.99,,,0.00,weatherlink.com 1.10,2013-01-22 07:36:00,
2013-01-22 02:51:00,16.4,13.0,29.76,SW,220,0.0,-999.0,85,-99.99,,,0.00,weatherlink.com 1.10,2013-01-22 07:51:00,
2013-01-22 03:06:00,15.9,12.0,29.75,SW,220,0.0,-999.0,85,-99.99,,,0.00,weatherlink.com 1.10,2013-01-22 08:06:00,
2013-01-22 03:21:00,15.6,12.0,29.75,SW,222,0.0,-999.0,85,-99.99,,,0.00,weatherlink.com 1.10,2013-01-22 08:21:00,
2013-01-22 03:37:00,15.4,12.0,29.75,SW,220,0.0,-999.0,85,-99.99,,,0.00,weatherlink.com 1.10,2013-01-22 08:37:00,
2013-01-22 03:52:00,15.2,12.0,29.75,SW,220,0.0,-999.0,85,-99.99,,,0.00,weatherlink.com 1.10,2013-01-22 08:52:00,
2013-01-22 04:06:00,15.1,11.0,29.75,SW,222,0.0,-999.0,85,-99.99,,,0.00,weatherlink.com 1.10,2013-01-22 09:06:00,
2013-01-22 04:22:00,14.9,11.0,29.75,SW,220,0.0,-999.0,85,-99.99,,,0.00,weatherlink.com 1.10,2013-01-22 09:22:00,
2013-01-22 04:36:00,14.9,11.0,29.75,SW,220,0.0,-999.0,85,-99.99,,,0.00,weatherlink.com 1.10,2013-01-22 09:36:00,
2013-01-22 04:52:00,15.1,11.0,29.75,SW,220,0.0,-999.0,85,-99.99,,,0.00,weatherlink.com 1.10,2013-01-22 09:52:00,
2013-01-22 05:06:00,15.2,12.0,29.75,SW,222,0.0,-999.0,85,-99.99,,,0.00,weatherlink.com 1.10,2013-01-22 10:06:00,
2013-01-22 05:22:00,15.4,12.0,29.75,SW,222,0.0,-999.0,85,-99.99,,,0.00,weatherlink.com 1.10,2013-01-22 10:22:00,
2013-01-22 05:36:00,15.6,12.0,29.75,SW,220,0.0,-999.0,85,-99.99,,,0.00,weatherlink.com 1.10,2013-01-22 10:36:00,
2013-01-22 05:51:00,15.6,12.0,29.76,SW,220,0.0,-999.0,85,-99.99,,,0.00,weatherlink.com 1.10,2013-01-22 10:51:00,
2013-01-22 06:06:00,15.9,13.0,29.77,SW,222,0.0,-999.0,86,-99.99,,,0.00,weatherlink.com 1.10,2013-01-22 11:06:00,
2013-01-22 06:21:00,16.5,13.0,29.77,East,80,0.0,-999.0,86,-99.99,,,0.00,weatherlink.com 1.10,2013-01-22 11:21:00,
2013-01-22 06:37:00,17.0,14.0,29.77,East,85,0.0,-999.0,86,-99.99,,,0.00,weatherlink.com 1.10,2013-01-22 11:37:00,
2013-01-22 06:52:00,17.5,14.0,29.78,West,275,0.0,-999.0,86,-99.99,,,0.00,weatherlink.com 1.10,2013-01-22 11:52:00,
2013-01-22 07:06:00,17.8,14.0,29.78,North,6,0.0,-999.0,85,-99.99,,,0.00,weatherlink.com 1.10,2013-01-22 12:06:00,
2013-01-22 07:22:00,17.8,14.0,29.79,South,189,0.0,-999.0,83,-99.99,,,0.00,weatherlink.com 1.10,2013-01-22 12:22:00,
2013-01-22 07:36:00,17.8,13.0,29.79,NE,35,0.0,-999.0,80,-99.99,,,0.00,weatherlink.com 1.10,2013-01-22 12:36:00,
2013-01-22 07:52:00,17.8,11.0,29.80,NE,48,1.0,-999.0,76,-99.99,,,0.00,weatherlink.com 1.10,2013-01-22 12:52:00,
2013-01-22 08:06:00,17.8,11.0,29.81,NE,48,0.0,-999.0,74,-99.99,,,0.00,weatherlink.com 1.10,2013-01-22 13:06:00,
2013-01-22 08:21:00,18.0,10.0,29.81,North,350,1.0,-999.0,71,-99.99,,,0.00,weatherlink.com 1.10,2013-01-22 13:21:00,
2013-01-22 08:36:00,18.8,9.0,29.82,WSW,253,0.0,-999.0,66,-99.99,,,0.00,weatherlink.com 1.10,2013-01-22 13:36:00,
2013-01-22 08:52:00,19.7,8.0,29.82,NNE,13,4.0,-999.0,61,-99.99,,,0.00,weatherlink.com 1.10,2013-01-22 13:52:00,
2013-01-22 09:06:00,20.3,7.0,29.82,NNW,346,5.0,-999.0,56,-99.99,,,0.00,weatherlink.com 1.10,2013-01-22 14:06:00,
2013-01-22 09:21:00,20.6,6.0,29.83,NW,311,2.0,-999.0,54,-99.99,,,0.00,weatherlink.com 1.10,2013-01-22 14:21:00,
2013-01-22 09:36:00,21.4,7.0,29.83,NW,316,6.0,-999.0,53,-99.99,,,0.00,weatherlink.com 1.10,2013-01-22 14:36:00,
2013-01-22 10:07:00,22.4,5.0,29.84,SSW,193,1.0,-999.0,47,-99.99,,,0.00,weatherlink.com 1.10,2013-01-22 15:07:00,
2013-01-22 10:22:00,22.4,4.0,29.85,North,350,5.0,-999.0,46,-99.99,,,0.00,weatherlink.com 1.10,2013-01-22 15:22:00,
2013-01-22 10:37:00,22.9,4.0,29.85,WNW,292,7.0,-999.0,44,-99.99,,,0.00,weatherlink.com 1.10,2013-01-22 15:37:00,
2013-01-22 10:51:00,23.9,3.0,29.84,West,275,5.0,-999.0,41,-99.99,,,0.00,weatherlink.com 1.10,2013-01-22 15:51:00,
2013-01-22 11:21:00,22.5,4.0,29.84,ENE,62,3.0,-999.0,44,-99.99,,,0.00,weatherlink.com 1.10,2013-01-22 16:21:00,
2013-01-22 11:37:00,23.6,3.0,29.84,WSW,247,8.0,-999.0,41,-99.99,,,0.00,weatherlink.com 1.10,2013-01-22 16:37:00,
2013-01-22 11:52:00,23.8,3.0,29.83,West,265,1.0,-999.0,41,-99.99,,,0.00,weatherlink.com 1.10,2013-01-22 16:52:00,
2013-01-22 12:06:00,23.6,2.0,29.84,SW,229,3.0,-999.0,39,-99.99,,,0.00,weatherlink.com 1.10,2013-01-22 17:06:00,
2013-01-22 12:22:00,22.5,0.0,29.83,West,281,8.0,-999.0,38,-99.99,,,0.00,weatherlink.com 1.10,2013-01-22 17:22:00,
2013-01-22 12:36:00,21.8,0.0,29.83,NNW,340,3.0,-999.0,39,-99.99,,,0.00,weatherlink.com 1.10,2013-01-22 17:36:00,
2013-01-22 13:21:00,21.1,-2.0,29.84,West,263,3.0,-999.0,37,-99.99,,,0.00,weatherlink.com 1.10,2013-01-22 18:21:00,
2013-01-22 13:37:00,21.1,-3.0,29.84,NNE,28,7.0,-999.0,35,-99.99,,,0.00,weatherlink.com 1.10,2013-01-22 18:37:00,
2013-01-22 13:51:00,22.4,-4.0,29.84,WNW,285,5.0,-999.0,31,-99.99,,,0.00,weatherlink.com 1.10,2013-01-22 18:51:00,
2013-01-22 14:07:00,22.1,-5.0,29.84,WNW,298,2.0,-999.0,30,-99.99,,,0.00,weatherlink.com 1.10,2013-01-22 19:07:00,
2013-01-22 14:22:00,22.2,-4.0,29.85,WNW,284,1.0,-999.0,31,-99.99,,,0.00,weatherlink.com 1.10,2013-01-22 19:22:00,
2013-01-22 14:37:00,22.1,-6.0,29.86,SW,234,2.0,-999.0,29,-99.99,,,0.00,weatherlink.com 1.10,2013-01-22 19:37:00,
2013-01-22 14:51:00,21.9,-7.0,29.86,North,0,4.0,-999.0,28,-99.99,,,0.00,weatherlink.com 1.10,2013-01-22 19:51:00,
2013-01-22 15:06:00,21.1,-5.0,29.88,WSW,244,2.0,-999.0,32,-99.99,,,0.00,weatherlink.com 1.10,2013-01-22 20:06:00,
2013-01-22 15:21:00,20.2,-5.0,29.89,WSW,253,3.0,-999.0,33,-99.99,,,0.00,weatherlink.com 1.10,2013-01-22 20:21:00,
2013-01-22 15:36:00,19.4,-5.0,29.89,NW,311,6.0,-999.0,34,-99.99,,,0.00,weatherlink.com 1.10,2013-01-22 20:36:00,
2013-01-22 15:51:00,19.7,-5.0,29.89,North,359,1.0,-999.0,34,-99.99,,,0.00,weatherlink.com 1.10,2013-01-22 20:51:00,
2013-01-22 16:06:00,19.9,-4.0,29.90,WSW,250,9.0,-999.0,35,-99.99,,,0.00,weatherlink.com 1.10,2013-01-22 21:06:00,
2013-01-22 16:22:00,19.4,-5.0,29.91,West,271,5.0,-999.0,33,-99.99,,,0.00,weatherlink.com 1.10,2013-01-22 21:22:00,
2013-01-22 16:36:00,18.6,-8.0,29.92,WSW,244,2.0,-999.0,30,-99.99,,,0.00,weatherlink.com 1.10,2013-01-22 21:36:00,
2013-01-22 16:53:00,18.0,-4.0,29.93,WSW,248,2.0,-999.0,37,-99.99,,,0.00,weatherlink.com 1.10,2013-01-22 21:53:00,
2013-01-22 17:06:00,17.3,-6.0,29.93,NW,315,2.0,-999.0,35,-99.99,,,0.00,weatherlink.com 1.10,2013-01-22 22:06:00,
2013-01-22 17:21:00,17.0,-6.0,29.94,ENE,61,4.0,-999.0,35,-99.99,,,0.00,weatherlink.com 1.10,2013-01-22 22:21:00,
2013-01-22 17:37:00,16.5,-6.0,29.95,NNE,13,1.0,-999.0,36,-99.99,,,0.00,weatherlink.com 1.10,2013-01-22 22:37:00,
2013-01-22 17:51:00,16.2,-5.0,29.96,SW,232,2.0,-999.0,38,-99.99,,,0.00,weatherlink.com 1.10,2013-01-22 22:51:00,
2013-01-22 18:07:00,15.9,-5.0,29.97,WSW,241,2.0,-999.0,40,-99.99,,,0.00,weatherlink.com 1.10,2013-01-22 23:07:00,
2013-01-22 18:23:00,15.6,-4.0,29.97,WSW,244,6.0,-999.0,41,-99.99,,,0.00,weatherlink.com 1.10,2013-01-22 23:23:00,
2013-01-22 18:51:00,14.9,-5.0,29.99,WSW,258,2.0,-999.0,42,-99.99,,,0.00,weatherlink.com 1.10,2013-01-22 23:51:00,
2013-01-22 19:07:00,14.8,-4.0,30.00,WNW,298,2.0,-999.0,44,-99.99,,,0.00,weatherlink.com 1.10,2013-01-23 00:07:00,
2013-01-22 19:21:00,14.8,-1.0,30.01,NNE,27,1.0,-999.0,50,-99.99,,,0.00,weatherlink.com 1.10,2013-01-23 00:21:00,
2013-01-22 19:36:00,14.6,0.0,30.01,WSW,250,1.0,-999.0,52,-99.99,,,0.00,weatherlink.com 1.10,2013-01-23 00:36:00,
2013-01-22 19:52:00,14.1,-99.9,30.01,WSW,250,0.0,-999.0,-999,-99.99,,,0.00,weatherlink.com 1.10,2013-01-23 00:52:00,
2013-01-22 20:06:00,13.6,-1.0,30.02,WSW,248,0.0,-999.0,53,-99.99,,,0.00,weatherlink.com 1.10,2013-01-23 01:06:00,
2013-01-22 20:22:00,13.3,-1.0,30.02,WSW,248,0.0,-999.0,54,-99.99,,,0.00,weatherlink.com 1.10,2013-01-23 01:22:00,
2013-01-22 20:37:00,13.1,0.0,30.02,WSW,248,1.0,-999.0,55,-99.99,,,0.00,weatherlink.com 1.10,2013-01-23 01:37:00,
2013-01-22 20:52:00,13.3,0.0,30.02,North,1,0.0,-999.0,55,-99.99,,,0.00,weatherlink.com 1.10,2013-01-23 01:52:00,
2013-01-22 21:06:00,12.9,0.0,30.02,North,1,0.0,-999.0,56,-99.99,,,0.00,weatherlink.com 1.10,2013-01-23 02:06:00,
2013-01-22 21:21:00,12.3,0.0,30.02,North,1,0.0,-999.0,57,-99.99,,,0.00,weatherlink.com 1.10,2013-01-23 02:21:00,
2013-01-22 21:36:00,11.7,-1.0,30.03,WNW,298,0.0,-999.0,58,-99.99,,,0.00,weatherlink.com 1.10,2013-01-23 02:36:00,
2013-01-22 21:52:00,11.1,-2.0,30.03,NW,306,0.0,-999.0,57,-99.99,,,0.00,weatherlink.com 1.10,2013-01-23 02:52:00,
2013-01-22 22:06:00,10.9,-2.0,30.04,NW,306,0.0,-999.0,56,-99.99,,,0.00,weatherlink.com 1.10,2013-01-23 03:06:00,
2013-01-22 22:21:00,10.2,-2.0,30.04,NW,306,0.0,-999.0,58,-99.99,,,0.00,weatherlink.com 1.10,2013-01-23 03:21:00,
2013-01-22 22:36:00,9.7,-2.0,30.05,NW,306,0.0,-999.0,59,-99.99,,,0.00,weatherlink.com 1.10,2013-01-23 03:36:00,
2013-01-22 22:52:00,9.0,-2.0,30.05,NW,306,0.0,-999.0,60,-99.99,,,0.00,weatherlink.com 1.10,2013-01-23 03:52:00,
2013-01-22 23:06:00,8.4,-3.0,30.05,NW,306,0.0,-999.0,61,-99.99,,,0.00,weatherlink.com 1.10,2013-01-23 04:06:00,
2013-01-22 23:22:00,7.7,-3.0,30.05,NW,306,0.0,-999.0,62,-99.99,,,0.00,weatherlink.com 1.10,2013-01-23 04:22:00,
2013-01-22 23:51:00,6.9,-3.0,30.05,NW,306,0.0,-999.0,64,-99.99,,,0.00,weatherlink.com 1.10,2013-01-23 04:51:00,